sensor_id;sensor_type;location;lat;lon;timestamp;temperature;humidity
46608;DHT22;32330;51.936;7.184;2023-07-31T03:48:54;16.30;99.90
46608;DHT22;32330;51.936;7.184;2023-07-31T03:51:22;16.30;99.90
46608;DHT22;32330;51.936;7.184;2023-07-31T03:53:49;16.30;99.90
46608;DHT22;32330;51.936;7.184;2023-07-31T03:56:16;16.30;99.90
46608;DHT22;32330;51.936;7.184;2023-07-31T03:58:43;16.30;99.90
46608;DHT22;32330;51.936;7.184;2023-07-31T04:01:10;16.30;99.90
46608;DHT22;32330;51.936;7.184;2023-07-31T04:03:37;16.20;99.90
46608;DHT22;32330;51.936;7.184;2023-07-31T04:06:05;16.30;99.90
46608;DHT22;32330;51.936;7.184;2023-07-31T04:08:33;16.20;99.90
46608;DHT22;32330;51.936;7.184;2023-07-31T04:11:00;16.20;99.90
46608;DHT22;32330;51.936;7.184;2023-07-31T04:13:29;16.20;99.90
46608;DHT22;32330;51.936;7.184;2023-07-31T04:15:56;16.20;99.90
46608;DHT22;32330;51.936;7.184;2023-07-31T04:18:24;16.20;99.90
46608;DHT22;32330;51.936;7.184;2023-07-31T04:20:51;16.20;99.90
46608;DHT22;32330;51.936;7.184;2023-07-31T04:23:20;16.30;99.90
46608;DHT22;32330;51.936;7.184;2023-07-31T04:25:47;16.30;99.90
46608;DHT22;32330;51.936;7.184;2023-07-31T04:28:13;16.30;99.90
46608;DHT22;32330;51.936;7.184;2023-07-31T04:30:40;16.20;99.90
46608;DHT22;32330;51.936;7.184;2023-07-31T04:33:07;16.20;99.90
46608;DHT22;32330;51.936;7.184;2023-07-31T04:35:35;16.20;99.90
46608;DHT22;32330;51.936;7.184;2023-07-31T04:38:02;16.20;99.90
46608;DHT22;32330;51.936;7.184;2023-07-31T04:40:31;16.20;99.90
46608;DHT22;32330;51.936;7.184;2023-07-31T04:42:58;16.20;99.90
46608;DHT22;32330;51.936;7.184;2023-07-31T04:45:25;16.30;99.90
46608;DHT22;32330;51.936;7.184;2023-07-31T04:47:52;16.20;99.90
46608;DHT22;32330;51.936;7.184;2023-07-31T04:50:19;16.30;99.90
46608;DHT22;32330;51.936;7.184;2023-07-31T04:52:46;16.20;99.90
46608;DHT22;32330;51.936;7.184;2023-07-31T04:55:12;16.30;99.90
46608;DHT22;32330;51.936;7.184;2023-07-31T04:57:41;16.30;99.90
46608;DHT22;32330;51.936;7.184;2023-07-31T05:00:08;16.30;99.90
46608;DHT22;32330;51.936;7.184;2023-07-31T05:02:35;16.30;99.90
46608;DHT22;32330;51.936;7.184;2023-07-31T05:05:03;16.30;99.90
46608;DHT22;32330;51.936;7.184;2023-07-31T05:07:30;16.30;99.90
46608;DHT22;32330;51.936;7.184;2023-07-31T05:09:57;16.30;99.90
46608;DHT22;32330;51.936;7.184;2023-07-31T05:12:23;16.40;99.90
46608;DHT22;32330;51.936;7.184;2023-07-31T05:14:52;16.40;99.90
46608;DHT22;32330;51.936;7.184;2023-07-31T05:17:19;16.40;99.90
46608;DHT22;32330;51.936;7.184;2023-07-31T05:19:47;16.40;99.90
46608;DHT22;32330;51.936;7.184;2023-07-31T05:22:14;16.50;99.90
46608;DHT22;32330;51.936;7.184;2023-07-31T05:24:41;16.50;99.90
46608;DHT22;32330;51.936;7.184;2023-07-31T05:27:08;16.50;99.90
46608;DHT22;32330;51.936;7.184;2023-07-31T05:29:35;16.50;99.90
46608;DHT22;32330;51.936;7.184;2023-07-31T05:32:04;16.60;99.90
46608;DHT22;32330;51.936;7.184;2023-07-31T05:34:32;16.60;99.90
46608;DHT22;32330;51.936;7.184;2023-07-31T05:37:01;16.60;99.90
46608;DHT22;32330;51.936;7.184;2023-07-31T05:39:28;16.60;99.90
46608;DHT22;32330;51.936;7.184;2023-07-31T05:41:55;16.60;99.90
46608;DHT22;32330;51.936;7.184;2023-07-31T05:44:22;16.60;99.90
46608;DHT22;32330;51.936;7.184;2023-07-31T05:46:49;16.60;99.90
46608;DHT22;32330;51.936;7.184;2023-07-31T05:49:17;16.60;99.90
46608;DHT22;32330;51.936;7.184;2023-07-31T05:51:44;16.70;99.90
46608;DHT22;32330;51.936;7.184;2023-07-31T05:54:11;16.70;99.90
46608;DHT22;32330;51.936;7.184;2023-07-31T05:56:38;16.70;99.90
46608;DHT22;32330;51.936;7.184;2023-07-31T05:59:05;16.70;99.90
46608;DHT22;32330;51.936;7.184;2023-07-31T06:01:33;16.70;99.90
46608;DHT22;32330;51.936;7.184;2023-07-31T06:04:00;16.70;99.90
46608;DHT22;32330;51.936;7.184;2023-07-31T06:06:29;16.70;99.90
46608;DHT22;32330;51.936;7.184;2023-07-31T06:08:56;16.70;99.90
46608;DHT22;32330;51.936;7.184;2023-07-31T06:11:23;16.70;99.90
46608;DHT22;32330;51.936;7.184;2023-07-31T06:13:50;16.80;99.90
46608;DHT22;32330;51.936;7.184;2023-07-31T06:16:17;16.80;99.90
46608;DHT22;32330;51.936;7.184;2023-07-31T06:18:44;16.90;99.90
46608;DHT22;32330;51.936;7.184;2023-07-31T06:21:11;16.90;99.90
46608;DHT22;32330;51.936;7.184;2023-07-31T06:23:39;16.90;99.90
46608;DHT22;32330;51.936;7.184;2023-07-31T06:26:06;16.90;99.90
46608;DHT22;32330;51.936;7.184;2023-07-31T06:28:33;16.90;99.90
46608;DHT22;32330;51.936;7.184;2023-07-31T06:31:00;16.90;99.90
46608;DHT22;32330;51.936;7.184;2023-07-31T06:33:27;16.90;99.90
46608;DHT22;32330;51.936;7.184;2023-07-31T06:35:54;16.90;99.90
46608;DHT22;32330;51.936;7.184;2023-07-31T06:38:23;16.90;99.90
46608;DHT22;32330;51.936;7.184;2023-07-31T06:40:52;16.90;99.90
46608;DHT22;32330;51.936;7.184;2023-07-31T06:43:19;16.90;99.90
46608;DHT22;32330;51.936;7.184;2023-07-31T06:45:46;16.90;99.90
46608;DHT22;32330;51.936;7.184;2023-07-31T06:48:15;16.90;99.90
46608;DHT22;32330;51.936;7.184;2023-07-31T06:50:42;16.80;99.90
46608;DHT22;32330;51.936;7.184;2023-07-31T06:53:09;16.80;99.90
46608;DHT22;32330;51.936;7.184;2023-07-31T06:55:36;16.80;99.90
46608;DHT22;32330;51.936;7.184;2023-07-31T06:58:05;16.80;99.90
46608;DHT22;32330;51.936;7.184;2023-07-31T07:00:32;16.80;99.90
46608;DHT22;32330;51.936;7.184;2023-07-31T07:02:59;16.80;99.90
46608;DHT22;32330;51.936;7.184;2023-07-31T07:05:26;16.70;99.90
46608;DHT22;32330;51.936;7.184;2023-07-31T07:07:53;16.70;99.90
46608;DHT22;32330;51.936;7.184;2023-07-31T07:10:20;16.80;99.90
46608;DHT22;32330;51.936;7.184;2023-07-31T07:12:47;16.80;99.90
46608;DHT22;32330;51.936;7.184;2023-07-31T07:15:16;16.80;99.90
46608;DHT22;32330;51.936;7.184;2023-07-31T07:17:43;16.80;99.90
46608;DHT22;32330;51.936;7.184;2023-07-31T07:20:10;16.90;99.90
46608;DHT22;32330;51.936;7.184;2023-07-31T07:22:37;16.90;99.90
46608;DHT22;32330;51.936;7.184;2023-07-31T07:25:05;16.90;99.90
46608;DHT22;32330;51.936;7.184;2023-07-31T07:27:33;16.80;99.90
46608;DHT22;32330;51.936;7.184;2023-07-31T07:30:00;16.80;99.90
46608;DHT22;32330;51.936;7.184;2023-07-31T07:32:28;16.80;99.90
46608;DHT22;32330;51.936;7.184;2023-07-31T07:34:55;16.70;99.90
46608;DHT22;32330;51.936;7.184;2023-07-31T07:37:22;16.80;99.90
46608;DHT22;32330;51.936;7.184;2023-07-31T07:39:50;16.90;99.90
46608;DHT22;32330;51.936;7.184;2023-07-31T07:42:17;17.00;99.90
46608;DHT22;32330;51.936;7.184;2023-07-31T07:44:44;17.00;99.90
46608;DHT22;32330;51.936;7.184;2023-07-31T07:47:12;17.00;99.90
46608;DHT22;32330;51.936;7.184;2023-07-31T07:49:40;17.00;99.90
46608;DHT22;32330;51.936;7.184;2023-07-31T07:52:07;17.10;99.90
46608;DHT22;32330;51.936;7.184;2023-07-31T07:54:34;17.10;99.90
46608;DHT22;32330;51.936;7.184;2023-07-31T07:57:01;17.00;99.90
46608;DHT22;32330;51.936;7.184;2023-07-31T07:59:28;17.10;99.90
46608;DHT22;32330;51.936;7.184;2023-07-31T08:01:56;17.10;99.90
46608;DHT22;32330;51.936;7.184;2023-07-31T08:04:23;17.10;99.90
46608;DHT22;32330;51.936;7.184;2023-07-31T08:06:51;17.10;99.90
46608;DHT22;32330;51.936;7.184;2023-07-31T08:09:18;17.20;99.90
46608;DHT22;32330;51.936;7.184;2023-07-31T08:11:46;17.20;99.90
46608;DHT22;32330;51.936;7.184;2023-07-31T08:14:13;17.20;99.90
46608;DHT22;32330;51.936;7.184;2023-07-31T08:16:41;17.30;99.90
46608;DHT22;32330;51.936;7.184;2023-07-31T08:19:08;17.30;99.90
46608;DHT22;32330;51.936;7.184;2023-07-31T08:21:39;17.40;99.90
46608;DHT22;32330;51.936;7.184;2023-07-31T08:24:08;17.40;99.90
46608;DHT22;32330;51.936;7.184;2023-07-31T08:26:35;17.40;99.90
46608;DHT22;32330;51.936;7.184;2023-07-31T08:29:02;17.40;99.90
46608;DHT22;32330;51.936;7.184;2023-07-31T08:31:30;17.40;99.90
46608;DHT22;32330;51.936;7.184;2023-07-31T08:33:57;17.40;99.90
46608;DHT22;32330;51.936;7.184;2023-07-31T08:36:25;17.50;99.90
46608;DHT22;32330;51.936;7.184;2023-07-31T08:38:55;17.50;99.90
46608;DHT22;32330;51.936;7.184;2023-07-31T08:41:25;17.50;99.90
46608;DHT22;32330;51.936;7.184;2023-07-31T08:43:53;17.60;99.90
46608;DHT22;32330;51.936;7.184;2023-07-31T08:46:21;17.60;99.90
46608;DHT22;32330;51.936;7.184;2023-07-31T08:48:49;17.60;99.90
46608;DHT22;32330;51.936;7.184;2023-07-31T08:51:18;17.50;99.90
46608;DHT22;32330;51.936;7.184;2023-07-31T08:53:46;17.60;99.90
46608;DHT22;32330;51.936;7.184;2023-07-31T08:56:13;17.60;99.90
46608;DHT22;32330;51.936;7.184;2023-07-31T08:58:44;17.60;99.90
46608;DHT22;32330;51.936;7.184;2023-07-31T09:01:13;17.50;99.90
46608;DHT22;32330;51.936;7.184;2023-07-31T09:03:42;17.60;99.90
46608;DHT22;32330;51.936;7.184;2023-07-31T09:06:10;17.60;99.90
46608;DHT22;32330;51.936;7.184;2023-07-31T09:08:40;17.50;99.90
46608;DHT22;32330;51.936;7.184;2023-07-31T09:11:08;17.50;99.90
46608;DHT22;32330;51.936;7.184;2023-07-31T09:13:35;17.60;99.90
46608;DHT22;32330;51.936;7.184;2023-07-31T09:16:05;17.50;99.90
46608;DHT22;32330;51.936;7.184;2023-07-31T09:18:32;17.60;99.90
46608;DHT22;32330;51.936;7.184;2023-07-31T09:21:02;17.60;99.90
46608;DHT22;32330;51.936;7.184;2023-07-31T09:23:40;17.50;99.90
46608;DHT22;32330;51.936;7.184;2023-07-31T09:26:08;17.60;99.90
46608;DHT22;32330;51.936;7.184;2023-07-31T09:28:35;17.60;99.90
46608;DHT22;32330;51.936;7.184;2023-07-31T09:31:02;17.60;99.90
46608;DHT22;32330;51.936;7.184;2023-07-31T09:33:30;17.60;99.90
46608;DHT22;32330;51.936;7.184;2023-07-31T09:35:59;17.50;99.90
46608;DHT22;32330;51.936;7.184;2023-07-31T09:38:26;17.60;99.90
46608;DHT22;32330;51.936;7.184;2023-07-31T09:40:53;17.60;99.90
46608;DHT22;32330;51.936;7.184;2023-07-31T09:43:21;17.60;99.90
46608;DHT22;32330;51.936;7.184;2023-07-31T09:45:55;17.70;99.90
46608;DHT22;32330;51.936;7.184;2023-07-31T09:48:23;17.80;99.90
46608;DHT22;32330;51.936;7.184;2023-07-31T09:50:54;17.70;99.90
46608;DHT22;32330;51.936;7.184;2023-07-31T09:53:28;17.80;99.90
46608;DHT22;32330;51.936;7.184;2023-07-31T09:55:57;17.90;99.90
46608;DHT22;32330;51.936;7.184;2023-07-31T09:58:26;17.80;99.90
46608;DHT22;32330;51.936;7.184;2023-07-31T10:00:55;17.80;99.90
46608;DHT22;32330;51.936;7.184;2023-07-31T10:03:41;17.90;99.90
46608;DHT22;32330;51.936;7.184;2023-07-31T10:06:34;17.80;99.90
46608;DHT22;32330;51.936;7.184;2023-07-31T10:09:36;17.80;99.90
46608;DHT22;32330;51.936;7.184;2023-07-31T10:19:49;17.90;99.90
46608;DHT22;32330;51.936;7.184;2023-07-31T10:22:27;18.00;99.90
46608;DHT22;32330;51.936;7.184;2023-07-31T10:25:00;18.00;99.90
46608;DHT22;32330;51.936;7.184;2023-07-31T10:30:23;18.00;99.90
46608;DHT22;32330;51.936;7.184;2023-07-31T10:32:52;18.00;99.90
46608;DHT22;32330;51.936;7.184;2023-07-31T10:35:31;18.00;99.90
46608;DHT22;32330;51.936;7.184;2023-07-31T10:38:09;18.00;99.90
46608;DHT22;32330;51.936;7.184;2023-07-31T10:40:37;18.20;99.90
46608;DHT22;32330;51.936;7.184;2023-07-31T10:43:05;18.10;99.90
46608;DHT22;32330;51.936;7.184;2023-07-31T10:45:35;18.10;99.90
46608;DHT22;32330;51.936;7.184;2023-07-31T10:48:04;18.10;99.90
46608;DHT22;32330;51.936;7.184;2023-07-31T10:50:32;18.10;99.90
46608;DHT22;32330;51.936;7.184;2023-07-31T10:52:59;18.10;99.90
46608;DHT22;32330;51.936;7.184;2023-07-31T10:55:30;18.10;99.90
46608;DHT22;32330;51.936;7.184;2023-07-31T10:58:05;18.10;99.90
46608;DHT22;32330;51.936;7.184;2023-07-31T11:00:33;18.00;99.90
46608;DHT22;32330;51.936;7.184;2023-07-31T11:03:02;18.00;99.90
46608;DHT22;32330;51.936;7.184;2023-07-31T11:05:52;17.90;99.90
46608;DHT22;32330;51.936;7.184;2023-07-31T11:08:22;18.00;99.90
46608;DHT22;32330;51.936;7.184;2023-07-31T11:11:09;18.00;99.90
46608;DHT22;32330;51.936;7.184;2023-07-31T11:13:41;17.90;99.90
46608;DHT22;32330;51.936;7.184;2023-07-31T11:16:09;17.90;99.90
46608;DHT22;32330;51.936;7.184;2023-07-31T11:18:42;17.90;99.90
46608;DHT22;32330;51.936;7.184;2023-07-31T11:21:16;17.90;99.90
46608;DHT22;32330;51.936;7.184;2023-07-31T11:23:55;17.90;99.90
46608;DHT22;32330;51.936;7.184;2023-07-31T11:26:25;17.80;99.90
46608;DHT22;32330;51.936;7.184;2023-07-31T11:28:52;17.80;99.90
46608;DHT22;32330;51.936;7.184;2023-07-31T11:31:19;17.90;99.90
46608;DHT22;32330;51.936;7.184;2023-07-31T11:33:47;17.80;99.90
46608;DHT22;32330;51.936;7.184;2023-07-31T11:36:18;17.80;99.90
46608;DHT22;32330;51.936;7.184;2023-07-31T11:38:45;18.00;99.90
46608;DHT22;32330;51.936;7.184;2023-07-31T11:41:14;18.00;99.90
46608;DHT22;32330;51.936;7.184;2023-07-31T11:43:42;18.00;99.90
46608;DHT22;32330;51.936;7.184;2023-07-31T11:46:09;18.00;99.90
46608;DHT22;32330;51.936;7.184;2023-07-31T11:51:35;18.10;99.90
46608;DHT22;32330;51.936;7.184;2023-07-31T11:54:11;18.30;99.90
46608;DHT22;32330;51.936;7.184;2023-07-31T11:56:52;18.40;99.90
46608;DHT22;32330;51.936;7.184;2023-07-31T11:59:44;18.60;99.90
46608;DHT22;32330;51.936;7.184;2023-07-31T12:02:11;18.70;99.90
46608;DHT22;32330;51.936;7.184;2023-07-31T12:04:39;18.60;99.90
46608;DHT22;32330;51.936;7.184;2023-07-31T12:07:06;18.60;99.90
46608;DHT22;32330;51.936;7.184;2023-07-31T12:09:33;18.60;99.90
46608;DHT22;32330;51.936;7.184;2023-07-31T12:12:00;18.60;99.90
46608;DHT22;32330;51.936;7.184;2023-07-31T12:14:29;18.70;99.90
46608;DHT22;32330;51.936;7.184;2023-07-31T12:16:59;18.70;99.90
46608;DHT22;32330;51.936;7.184;2023-07-31T12:19:26;18.70;99.90
46608;DHT22;32330;51.936;7.184;2023-07-31T12:21:55;18.80;99.90
46608;DHT22;32330;51.936;7.184;2023-07-31T12:24:22;18.70;99.90
46608;DHT22;32330;51.936;7.184;2023-07-31T12:26:49;18.70;99.90
46608;DHT22;32330;51.936;7.184;2023-07-31T12:29:17;18.70;99.90
46608;DHT22;32330;51.936;7.184;2023-07-31T12:31:44;18.70;99.90
46608;DHT22;32330;51.936;7.184;2023-07-31T12:34:20;18.70;99.90
46608;DHT22;32330;51.936;7.184;2023-07-31T12:36:47;18.70;99.90
46608;DHT22;32330;51.936;7.184;2023-07-31T12:39:15;18.60;99.90
46608;DHT22;32330;51.936;7.184;2023-07-31T12:41:42;18.50;99.90
46608;DHT22;32330;51.936;7.184;2023-07-31T12:44:09;18.50;99.90
46608;DHT22;32330;51.936;7.184;2023-07-31T12:46:36;18.60;99.90
46608;DHT22;32330;51.936;7.184;2023-07-31T12:49:03;18.70;99.90
46608;DHT22;32330;51.936;7.184;2023-07-31T12:51:31;18.70;99.90
46608;DHT22;32330;51.936;7.184;2023-07-31T12:53:58;18.70;99.90
46608;DHT22;32330;51.936;7.184;2023-07-31T12:56:25;18.80;99.90
46608;DHT22;32330;51.936;7.184;2023-07-31T12:58:52;18.70;99.90
46608;DHT22;32330;51.936;7.184;2023-07-31T13:01:19;18.60;99.90
46608;DHT22;32330;51.936;7.184;2023-07-31T13:03:46;18.60;99.90
46608;DHT22;32330;51.936;7.184;2023-07-31T13:06:14;18.60;99.90
46608;DHT22;32330;51.936;7.184;2023-07-31T13:08:43;18.70;99.90
46608;DHT22;32330;51.936;7.184;2023-07-31T13:11:10;18.80;99.90
46608;DHT22;32330;51.936;7.184;2023-07-31T13:13:37;18.90;99.90
46608;DHT22;32330;51.936;7.184;2023-07-31T13:16:04;18.90;99.90
46608;DHT22;32330;51.936;7.184;2023-07-31T13:18:31;18.90;99.90
46608;DHT22;32330;51.936;7.184;2023-07-31T13:20:58;19.00;99.90
46608;DHT22;32330;51.936;7.184;2023-07-31T13:23:25;19.10;99.90
46608;DHT22;32330;51.936;7.184;2023-07-31T13:25:53;19.20;99.90
46608;DHT22;32330;51.936;7.184;2023-07-31T13:28:20;19.30;99.90
46608;DHT22;32330;51.936;7.184;2023-07-31T13:30:47;19.30;99.90
46608;DHT22;32330;51.936;7.184;2023-07-31T13:33:14;19.40;99.90
46608;DHT22;32330;51.936;7.184;2023-07-31T13:35:41;19.40;99.90
46608;DHT22;32330;51.936;7.184;2023-07-31T13:38:08;19.40;99.90
46608;DHT22;32330;51.936;7.184;2023-07-31T13:40:35;19.40;99.90
46608;DHT22;32330;51.936;7.184;2023-07-31T13:43:03;19.40;99.90
46608;DHT22;32330;51.936;7.184;2023-07-31T13:45:30;19.40;99.90
46608;DHT22;32330;51.936;7.184;2023-07-31T13:47:57;19.40;99.90
46608;DHT22;32330;51.936;7.184;2023-07-31T13:50:24;19.30;99.90
46608;DHT22;32330;51.936;7.184;2023-07-31T13:52:51;19.30;99.90
46608;DHT22;32330;51.936;7.184;2023-07-31T13:55:18;19.40;99.90
46608;DHT22;32330;51.936;7.184;2023-07-31T13:57:46;19.40;99.90
46608;DHT22;32330;51.936;7.184;2023-07-31T14:00:15;19.40;99.90
46608;DHT22;32330;51.936;7.184;2023-07-31T14:02:42;19.40;99.90
46608;DHT22;32330;51.936;7.184;2023-07-31T14:05:10;19.50;99.90
46608;DHT22;32330;51.936;7.184;2023-07-31T14:07:37;19.40;99.90
46608;DHT22;32330;51.936;7.184;2023-07-31T14:10:04;19.40;99.90
46608;DHT22;32330;51.936;7.184;2023-07-31T14:12:31;19.40;99.90
46608;DHT22;32330;51.936;7.184;2023-07-31T14:14:58;19.40;99.90
46608;DHT22;32330;51.936;7.184;2023-07-31T14:17:27;19.40;99.90
46608;DHT22;32330;51.936;7.184;2023-07-31T14:19:54;19.40;99.90
46608;DHT22;32330;51.936;7.184;2023-07-31T14:22:28;19.40;99.90
46608;DHT22;32330;51.936;7.184;2023-07-31T14:24:55;19.40;99.90
46608;DHT22;32330;51.936;7.184;2023-07-31T14:27:22;19.20;99.90
46608;DHT22;32330;51.936;7.184;2023-07-31T14:29:50;19.30;99.90
46608;DHT22;32330;51.936;7.184;2023-07-31T14:32:17;19.40;99.90
46608;DHT22;32330;51.936;7.184;2023-07-31T14:34:45;19.30;99.90
46608;DHT22;32330;51.936;7.184;2023-07-31T14:37:12;19.20;99.90
46608;DHT22;32330;51.936;7.184;2023-07-31T14:39:39;19.20;99.90
46608;DHT22;32330;51.936;7.184;2023-07-31T14:42:06;19.20;99.90
46608;DHT22;32330;51.936;7.184;2023-07-31T14:44:33;19.30;99.90
46608;DHT22;32330;51.936;7.184;2023-07-31T14:47:00;19.30;99.90
46608;DHT22;32330;51.936;7.184;2023-07-31T14:49:27;19.30;99.90
46608;DHT22;32330;51.936;7.184;2023-07-31T14:51:56;19.30;99.90
46608;DHT22;32330;51.936;7.184;2023-07-31T14:54:23;19.40;99.90
46608;DHT22;32330;51.936;7.184;2023-07-31T14:56:50;19.40;99.90
46608;DHT22;32330;51.936;7.184;2023-07-31T14:59:17;19.50;99.90
46608;DHT22;32330;51.936;7.184;2023-07-31T15:01:44;19.50;99.90
46608;DHT22;32330;51.936;7.184;2023-07-31T15:04:11;19.40;99.90
46608;DHT22;32330;51.936;7.184;2023-07-31T15:06:38;19.50;99.90
46608;DHT22;32330;51.936;7.184;2023-07-31T15:09:06;19.50;99.90
46608;DHT22;32330;51.936;7.184;2023-07-31T15:11:33;19.40;99.90
46608;DHT22;32330;51.936;7.184;2023-07-31T15:14:00;19.40;99.90
46608;DHT22;32330;51.936;7.184;2023-07-31T15:16:27;19.30;99.90
46608;DHT22;32330;51.936;7.184;2023-07-31T15:18:54;19.30;99.90
46608;DHT22;32330;51.936;7.184;2023-07-31T15:21:21;19.20;99.90
46608;DHT22;32330;51.936;7.184;2023-07-31T15:23:48;19.20;99.90
46608;DHT22;32330;51.936;7.184;2023-07-31T15:26:17;19.20;99.90
46608;DHT22;32330;51.936;7.184;2023-07-31T15:28:47;19.20;99.90
46608;DHT22;32330;51.936;7.184;2023-07-31T15:31:15;19.30;99.90
46608;DHT22;32330;51.936;7.184;2023-07-31T15:33:42;19.20;99.90
46608;DHT22;32330;51.936;7.184;2023-07-31T15:36:10;19.20;99.90
46608;DHT22;32330;51.936;7.184;2023-07-31T15:38:36;19.20;99.90
46608;DHT22;32330;51.936;7.184;2023-07-31T15:41:04;19.10;99.90
46608;DHT22;32330;51.936;7.184;2023-07-31T15:43:32;19.10;99.90
46608;DHT22;32330;51.936;7.184;2023-07-31T15:45:59;19.00;99.90
46608;DHT22;32330;51.936;7.184;2023-07-31T15:48:26;19.00;99.90
46608;DHT22;32330;51.936;7.184;2023-07-31T15:50:54;18.90;99.90
46608;DHT22;32330;51.936;7.184;2023-07-31T15:53:21;18.90;99.90
46608;DHT22;32330;51.936;7.184;2023-07-31T15:55:48;18.90;99.90
46608;DHT22;32330;51.936;7.184;2023-07-31T15:58:14;18.90;99.90
46608;DHT22;32330;51.936;7.184;2023-07-31T16:00:43;18.90;99.90
46608;DHT22;32330;51.936;7.184;2023-07-31T16:03:10;18.80;99.90
46608;DHT22;32330;51.936;7.184;2023-07-31T16:05:37;18.80;99.90
46608;DHT22;32330;51.936;7.184;2023-07-31T16:08:05;18.70;99.90
46608;DHT22;32330;51.936;7.184;2023-07-31T16:10:32;18.70;99.90
46608;DHT22;32330;51.936;7.184;2023-07-31T16:12:59;18.70;99.90
46608;DHT22;32330;51.936;7.184;2023-07-31T16:15:26;18.60;99.90
46608;DHT22;32330;51.936;7.184;2023-07-31T16:21:46;18.60;99.90
46608;DHT22;32330;51.936;7.184;2023-07-31T16:24:16;18.50;99.90
46608;DHT22;32330;51.936;7.184;2023-07-31T16:26:54;18.50;99.90
46608;DHT22;32330;51.936;7.184;2023-07-31T16:29:32;18.60;99.90
46608;DHT22;32330;51.936;7.184;2023-07-31T16:32:17;18.60;99.90
46608;DHT22;32330;51.936;7.184;2023-07-31T16:34:56;18.60;99.90
46608;DHT22;32330;51.936;7.184;2023-07-31T16:38:06;18.50;99.90
46608;DHT22;32330;51.936;7.184;2023-07-31T16:41:18;18.40;99.90
46608;DHT22;32330;51.936;7.184;2023-07-31T16:43:55;18.40;99.90
46608;DHT22;32330;51.936;7.184;2023-07-31T16:46:29;18.40;99.90
46608;DHT22;32330;51.936;7.184;2023-07-31T16:49:02;18.40;99.90
46608;DHT22;32330;51.936;7.184;2023-07-31T16:51:42;18.30;99.90
46608;DHT22;32330;51.936;7.184;2023-07-31T16:54:43;18.40;99.90
46608;DHT22;32330;51.936;7.184;2023-07-31T16:57:24;18.40;99.90
46608;DHT22;32330;51.936;7.184;2023-07-31T17:00:22;18.40;99.90
46608;DHT22;32330;51.936;7.184;2023-07-31T17:02:54;18.40;99.90
46608;DHT22;32330;51.936;7.184;2023-07-31T17:05:44;18.40;99.90
46608;DHT22;32330;51.936;7.184;2023-07-31T17:08:22;18.30;99.90
46608;DHT22;32330;51.936;7.184;2023-07-31T17:11:03;18.20;99.90
46608;DHT22;32330;51.936;7.184;2023-07-31T17:13:45;18.20;99.90
46608;DHT22;32330;51.936;7.184;2023-07-31T17:16:12;18.20;99.90
46608;DHT22;32330;51.936;7.184;2023-07-31T17:18:39;18.20;99.90
46608;DHT22;32330;51.936;7.184;2023-07-31T17:21:06;18.20;99.90
46608;DHT22;32330;51.936;7.184;2023-07-31T17:23:33;18.20;99.90
46608;DHT22;32330;51.936;7.184;2023-07-31T17:26:02;18.20;99.90
46608;DHT22;32330;51.936;7.184;2023-07-31T17:28:30;18.20;99.90
46608;DHT22;32330;51.936;7.184;2023-07-31T17:30:58;18.10;99.90
46608;DHT22;32330;51.936;7.184;2023-07-31T17:33:25;18.10;99.90
46608;DHT22;32330;51.936;7.184;2023-07-31T17:35:52;18.10;99.90
46608;DHT22;32330;51.936;7.184;2023-07-31T17:38:20;18.10;99.90
46608;DHT22;32330;51.936;7.184;2023-07-31T17:40:47;18.10;99.90
46608;DHT22;32330;51.936;7.184;2023-07-31T17:43:16;18.10;99.90
46608;DHT22;32330;51.936;7.184;2023-07-31T17:45:53;18.10;99.90
46608;DHT22;32330;51.936;7.184;2023-07-31T17:48:20;18.00;99.90
46608;DHT22;32330;51.936;7.184;2023-07-31T17:50:49;18.00;99.90
46608;DHT22;32330;51.936;7.184;2023-07-31T17:53:20;18.00;99.90
46608;DHT22;32330;51.936;7.184;2023-07-31T17:55:48;18.00;99.90
46608;DHT22;32330;51.936;7.184;2023-07-31T17:58:16;18.00;99.90
46608;DHT22;32330;51.936;7.184;2023-07-31T18:00:43;18.00;99.90
46608;DHT22;32330;51.936;7.184;2023-07-31T18:03:10;17.90;99.90
46608;DHT22;32330;51.936;7.184;2023-07-31T18:05:38;17.90;99.90
46608;DHT22;32330;51.936;7.184;2023-07-31T18:08:06;17.90;99.90
46608;DHT22;32330;51.936;7.184;2023-07-31T18:10:33;17.90;99.90
46608;DHT22;32330;51.936;7.184;2023-07-31T18:13:02;17.90;99.90
46608;DHT22;32330;51.936;7.184;2023-07-31T18:15:30;17.90;99.90
46608;DHT22;32330;51.936;7.184;2023-07-31T18:17:57;17.90;99.90
46608;DHT22;32330;51.936;7.184;2023-07-31T18:20:25;17.90;99.90
46608;DHT22;32330;51.936;7.184;2023-07-31T18:22:52;17.80;99.90
46608;DHT22;32330;51.936;7.184;2023-07-31T18:25:46;17.80;99.90
46608;DHT22;32330;51.936;7.184;2023-07-31T18:28:23;17.80;99.90
46608;DHT22;32330;51.936;7.184;2023-07-31T18:31:00;17.80;99.90
46608;DHT22;32330;51.936;7.184;2023-07-31T18:33:28;17.80;99.90
46608;DHT22;32330;51.936;7.184;2023-07-31T18:35:55;17.70;99.90
46608;DHT22;32330;51.936;7.184;2023-07-31T18:38:22;17.80;99.90
46608;DHT22;32330;51.936;7.184;2023-07-31T18:40:50;17.70;99.90
46608;DHT22;32330;51.936;7.184;2023-07-31T18:43:17;17.70;99.90
46608;DHT22;32330;51.936;7.184;2023-07-31T18:45:44;17.70;99.90
46608;DHT22;32330;51.936;7.184;2023-07-31T18:48:13;17.80;99.90
46608;DHT22;32330;51.936;7.184;2023-07-31T18:50:40;17.80;99.90
46608;DHT22;32330;51.936;7.184;2023-07-31T18:53:08;17.80;99.90
46608;DHT22;32330;51.936;7.184;2023-07-31T18:55:35;17.70;99.90
46608;DHT22;32330;51.936;7.184;2023-07-31T18:58:02;17.80;99.90
46608;DHT22;32330;51.936;7.184;2023-07-31T19:00:29;17.80;99.90
46608;DHT22;32330;51.936;7.184;2023-07-31T19:02:56;17.70;99.90
46608;DHT22;32330;51.936;7.184;2023-07-31T19:05:25;17.70;99.90
46608;DHT22;32330;51.936;7.184;2023-07-31T19:07:52;17.70;99.90
46608;DHT22;32330;51.936;7.184;2023-07-31T19:10:19;17.70;99.90
46608;DHT22;32330;51.936;7.184;2023-07-31T19:12:46;17.60;99.90
46608;DHT22;32330;51.936;7.184;2023-07-31T19:15:13;17.60;99.90
46608;DHT22;32330;51.936;7.184;2023-07-31T19:17:40;17.70;99.90
46608;DHT22;32330;51.936;7.184;2023-07-31T19:20:11;17.70;99.90
46608;DHT22;32330;51.936;7.184;2023-07-31T19:22:40;17.60;99.90
46608;DHT22;32330;51.936;7.184;2023-07-31T19:25:08;17.70;99.90
46608;DHT22;32330;51.936;7.184;2023-07-31T19:27:35;17.70;99.90
46608;DHT22;32330;51.936;7.184;2023-07-31T19:30:02;17.60;99.90
46608;DHT22;32330;51.936;7.184;2023-07-31T19:32:29;17.60;99.90
46608;DHT22;32330;51.936;7.184;2023-07-31T19:34:57;17.60;99.90
46608;DHT22;32330;51.936;7.184;2023-07-31T19:37:24;17.60;99.90
46608;DHT22;32330;51.936;7.184;2023-07-31T19:39:52;17.60;99.90
46608;DHT22;32330;51.936;7.184;2023-07-31T19:42:19;17.60;99.90
46608;DHT22;32330;51.936;7.184;2023-07-31T19:44:47;17.50;99.90
46608;DHT22;32330;51.936;7.184;2023-07-31T19:47:14;17.60;99.90